createdAt,value
2023-02-01T00:04:46.040Z,76.03
2023-02-01T00:09:48.897Z,76.09
2023-02-01T00:14:51.747Z,76.14
2023-02-01T00:19:54.683Z,76.24
2023-02-01T00:24:57.520Z,76.19
2023-02-01T00:30:00.362Z,75.77
2023-02-01T00:35:03.252Z,75.95
2023-02-01T00:40:07.182Z,76.23
2023-02-01T00:45:10.674Z,76.44
2023-02-01T00:50:13.519Z,76.54
2023-02-01T00:55:16.525Z,76.65
2023-02-01T01:00:20.090Z,76.77
2023-02-01T01:05:23.236Z,76.58
2023-02-01T01:10:26.265Z,76.88
2023-02-01T01:15:29.244Z,77.03
2023-02-01T01:20:32.238Z,76.77
2023-02-01T01:25:40.453Z,76.86
2023-02-01T01:30:43.552Z,76.91
2023-02-01T01:35:46.549Z,76.79
2023-02-01T01:40:52.202Z,76.70
2023-02-01T01:45:55.144Z,76.37
2023-02-01T01:51:07.940Z,76.44
2023-02-01T01:56:12.295Z,76.02
2023-02-01T02:01:15.409Z,75.88
2023-02-01T02:06:32.553Z,75.79
2023-02-01T02:11:35.608Z,75.69
2023-02-01T02:16:53.123Z,75.56
2023-02-01T02:22:20.715Z,75.60
2023-02-01T02:27:52.242Z,75.61
2023-02-01T02:33:41.852Z,75.43
2023-02-01T02:38:59.177Z,74.87
2023-02-01T02:44:30.954Z,74.85
2023-02-01T02:50:10.443Z,74.58
2023-02-01T02:55:14.320Z,74.18
2023-02-01T03:00:38.672Z,73.84
2023-02-01T03:05:47.216Z,74.16
2023-02-01T03:10:59.138Z,74.00
2023-02-01T03:16:33.084Z,74.14
2023-02-01T03:21:49.284Z,73.87
2023-02-01T03:26:59.004Z,74.11
2023-02-01T03:32:02.695Z,74.22
2023-02-01T03:37:11.610Z,74.13
2023-02-01T03:42:21.626Z,74.12
2023-02-01T03:47:29.728Z,74.42
2023-02-01T03:52:45.216Z,74.41
2023-02-01T03:58:00.837Z,74.36
2023-02-01T04:03:07.272Z,74.20
2023-02-01T04:08:10.221Z,74.22
2023-02-01T04:13:13.491Z,74.29
2023-02-01T04:18:16.614Z,73.85
2023-02-01T04:23:19.579Z,73.76
2023-02-01T04:28:22.493Z,73.64
2023-02-01T04:33:25.492Z,73.90
2023-02-01T04:38:30.466Z,73.62
2023-02-01T04:43:33.714Z,73.50
2023-02-01T04:48:36.665Z,73.58
2023-02-01T04:53:39.722Z,73.72
2023-02-01T04:58:42.688Z,73.80
2023-02-01T05:03:45.705Z,73.46
2023-02-01T05:08:48.758Z,73.70
2023-02-01T05:13:51.698Z,73.57
2023-02-01T05:18:54.797Z,73.33
2023-02-01T05:24:20.894Z,73.29
2023-02-01T05:29:23.920Z,73.74
2023-02-01T05:34:26.889Z,73.87
2023-02-01T05:39:29.912Z,74.04
2023-02-01T05:44:32.844Z,74.02
2023-02-01T05:49:35.806Z,73.88
2023-02-01T05:54:38.838Z,73.68
2023-02-01T05:59:49.699Z,73.35
2023-02-01T06:04:52.852Z,73.40
2023-02-01T06:09:55.820Z,73.38
2023-02-01T06:14:59.799Z,73.27
2023-02-01T06:20:02.771Z,73.13
2023-02-01T06:25:09.075Z,73.26
2023-02-01T06:30:14.733Z,73.72
2023-02-01T06:35:17.777Z,73.82
2023-02-01T06:40:20.876Z,73.57
2023-02-01T06:45:23.913Z,73.61
2023-02-01T06:50:27.631Z,73.19
2023-02-01T06:55:30.631Z,73.37
2023-02-01T07:00:33.671Z,73.37
2023-02-01T07:05:36.636Z,73.00
2023-02-01T07:10:39.698Z,72.77
2023-02-01T07:15:42.672Z,72.75
2023-02-01T07:20:51.617Z,72.83
2023-02-01T07:26:00.331Z,72.36
2023-02-01T07:31:19.990Z,71.98
2023-02-01T07:36:23.235Z,72.04
2023-02-01T07:41:26.298Z,72.02
2023-02-01T07:46:29.232Z,71.87
2023-02-01T07:51:32.618Z,71.74
2023-02-01T07:56:35.736Z,72.00
2023-02-01T08:01:38.774Z,71.79
2023-02-01T08:06:41.715Z,71.56
2023-02-01T08:11:44.753Z,71.61
2023-02-01T08:16:47.726Z,71.46
2023-02-01T08:21:50.975Z,71.29
2023-02-01T08:26:54.060Z,71.12
2023-02-01T08:31:57.584Z,70.78
2023-02-01T08:37:01.192Z,70.85
2023-02-01T08:42:22.956Z,70.51
2023-02-01T08:47:25.911Z,70.52
2023-02-01T08:52:28.972Z,70.25
2023-02-01T08:57:32.063Z,70.58
2023-02-01T09:02:35.348Z,70.66
2023-02-01T09:07:38.695Z,70.43
2023-02-01T09:12:41.662Z,70.95
2023-02-01T09:17:44.691Z,70.53
2023-02-01T09:22:47.705Z,70.01
2023-02-01T09:27:50.673Z,70.18
2023-02-01T09:32:53.653Z,70.52
2023-02-01T09:37:56.683Z,70.79
2023-02-01T09:43:33.737Z,70.84
2023-02-01T09:48:44.089Z,70.96
2023-02-01T09:54:15.365Z,71.16
2023-02-01T09:59:50.496Z,71.50
2023-02-01T10:04:58.172Z,71.12
2023-02-01T10:10:17.175Z,71.36
2023-02-01T10:15:30.623Z,72.16
2023-02-01T10:21:27.347Z,72.42
2023-02-01T10:26:45.547Z,72.57
2023-02-01T10:31:48.774Z,72.51
2023-02-01T10:36:53.831Z,72.53
2023-02-01T10:41:57.376Z,71.97
2023-02-01T10:47:00.323Z,71.84
2023-02-01T10:52:27.550Z,71.84
2023-02-01T10:57:32.989Z,71.63
2023-02-01T11:02:36.936Z,71.13
2023-02-01T11:07:47.268Z,71.21
2023-02-01T11:12:55.889Z,71.67
2023-02-01T11:18:16.925Z,71.24
2023-02-01T11:23:24.335Z,71.28
2023-02-01T11:28:33.730Z,70.94
2023-02-01T11:33:43.752Z,71.24
2023-02-01T11:39:11.777Z,71.11
2023-02-01T11:44:40.107Z,71.75
2023-02-01T11:49:43.807Z,72.20
2023-02-01T11:55:14.887Z,73.02
2023-02-01T12:00:54.931Z,73.22
2023-02-01T12:06:35.987Z,72.96
2023-02-01T12:11:53.062Z,73.08
2023-02-01T12:17:19.672Z,72.85
2023-02-01T12:22:50.723Z,72.73
2023-02-01T12:28:09.631Z,72.33
2023-02-01T12:33:53.294Z,72.28
2023-02-01T12:39:26.100Z,72.37
2023-02-01T12:44:52.455Z,71.95
2023-02-01T12:50:28.091Z,71.81
2023-02-01T12:55:47.341Z,71.55
2023-02-01T13:01:09.648Z,71.31
2023-02-01T13:06:22.967Z,71.16
2023-02-01T13:11:37.872Z,71.53
2023-02-01T13:16:49.617Z,71.62
2023-02-01T13:22:12.924Z,71.39
2023-02-01T13:27:17.977Z,71.35
2023-02-01T13:33:50.854Z,71.17
2023-02-01T13:38:56.102Z,71.12
2023-02-01T13:44:32.200Z,70.84
2023-02-01T13:49:40.918Z,70.78
2023-02-01T13:54:44.003Z,71.10
2023-02-01T13:59:46.933Z,71.10
2023-02-01T14:04:51.627Z,70.88
2023-02-01T14:09:54.727Z,70.46
2023-02-01T14:15:24.611Z,71.01
2023-02-01T14:20:46.972Z,71.54
2023-02-01T14:26:06.290Z,71.61
2023-02-01T14:31:34.187Z,71.92
2023-02-01T14:36:59.301Z,72.47
2023-02-01T14:42:34.866Z,72.49
2023-02-01T14:47:37.885Z,72.38
2023-02-01T14:52:47.029Z,72.74
2023-02-01T14:57:54.067Z,73.00
2023-02-01T15:03:23.471Z,73.00
2023-02-01T15:08:31.435Z,72.93
2023-02-01T15:13:34.382Z,72.94
2023-02-01T15:18:37.969Z,73.05
2023-02-01T15:23:40.917Z,73.21
2023-02-01T15:28:43.939Z,73.29
2023-02-01T15:33:58.668Z,73.41
2023-02-01T15:39:19.435Z,73.71
2023-02-01T15:44:38.896Z,73.92
2023-02-01T15:49:44.520Z,74.00
2023-02-01T15:54:50.911Z,74.43
2023-02-01T15:59:56.312Z,74.55
2023-02-01T16:04:59.309Z,75.02
2023-02-01T16:10:24.416Z,75.14
2023-02-01T16:15:30.831Z,75.14
2023-02-01T16:20:34.463Z,75.15
2023-02-01T16:25:39.092Z,75.41
2023-02-01T16:30:42.159Z,75.17
2023-02-01T16:35:45.142Z,75.48
2023-02-01T16:40:50.685Z,75.57
2023-02-01T16:45:59.991Z,75.52
2023-02-01T16:51:17.065Z,75.67
2023-02-01T16:56:24.280Z,75.81
2023-02-01T17:01:27.439Z,75.73
2023-02-01T17:06:33.520Z,75.48
2023-02-01T17:11:38.635Z,75.74
2023-02-01T17:16:42.028Z,75.68
2023-02-01T17:21:53.067Z,75.82
2023-02-01T17:26:56.245Z,75.63
2023-02-01T17:32:00.722Z,75.58
2023-02-01T17:37:06.999Z,75.71
2023-02-01T17:42:12.389Z,75.86
2023-02-01T17:47:15.350Z,75.54
2023-02-01T17:52:19.024Z,75.49
2023-02-01T17:57:22.352Z,75.66
2023-02-01T18:02:25.876Z,75.50
2023-02-01T18:07:28.983Z,75.31
2023-02-01T18:12:33.423Z,75.64
2023-02-01T18:17:36.364Z,75.67
2023-02-01T18:22:39.265Z,75.66
2023-02-01T18:27:42.289Z,75.72
2023-02-01T18:32:47.082Z,75.76
2023-02-01T18:37:51.617Z,75.78
2023-02-01T18:42:54.756Z,75.73
2023-02-01T18:47:59.979Z,75.85
2023-02-01T18:53:06.206Z,75.75
2023-02-01T18:58:17.188Z,75.58
2023-02-01T19:03:20.860Z,75.49
2023-02-01T19:08:25.835Z,75.13
2023-02-01T19:13:31.540Z,75.28
2023-02-01T19:18:34.752Z,75.28
2023-02-01T19:23:42.085Z,75.26
2023-02-01T19:28:47.948Z,75.01
2023-02-01T19:33:51.080Z,74.98
2023-02-01T19:38:54.192Z,74.76
2023-02-01T19:43:58.880Z,74.78
2023-02-01T19:49:01.983Z,74.65
2023-02-01T19:54:05.000Z,74.69
2023-02-01T19:59:08.515Z,74.66
2023-02-01T20:04:11.921Z,74.58
2023-02-01T20:09:26.281Z,74.68
2023-02-01T20:14:29.813Z,74.96
2023-02-01T20:19:33.566Z,75.09
2023-02-01T20:24:38.749Z,75.20
2023-02-01T20:29:42.613Z,75.02
2023-02-01T20:34:45.638Z,75.20
2023-02-01T20:39:48.645Z,75.02
2023-02-01T20:44:51.596Z,75.16
2023-02-01T20:49:54.597Z,75.02
2023-02-01T20:54:57.530Z,75.53
2023-02-01T21:00:00.622Z,75.42
2023-02-01T21:05:03.872Z,75.21
2023-02-01T21:10:07.624Z,75.17
2023-02-01T21:15:10.829Z,75.08
2023-02-01T21:20:13.946Z,75.02
2023-02-01T21:25:17.065Z,75.09
2023-02-01T21:30:20.063Z,75.07
2023-02-01T21:35:23.320Z,75.01
2023-02-01T21:40:26.553Z,74.86
2023-02-01T21:45:29.477Z,74.85
2023-02-01T21:50:32.406Z,74.91
2023-02-01T21:55:35.342Z,74.91
2023-02-01T22:00:39.746Z,74.52
2023-02-01T22:05:43.333Z,74.30
2023-02-01T22:10:46.556Z,74.09
2023-02-01T22:15:49.525Z,74.37
2023-02-01T22:20:59.840Z,74.22
2023-02-01T22:26:09.142Z,74.21
2023-02-01T22:31:12.438Z,74.15
2023-02-01T22:36:19.796Z,74.11
2023-02-01T22:41:22.749Z,74.24
2023-02-01T22:46:25.678Z,74.25
2023-02-01T22:51:31.492Z,74.36
2023-02-01T22:56:37.375Z,74.34
2023-02-01T23:01:41.563Z,74.45
2023-02-01T23:06:44.972Z,74.53
2023-02-01T23:11:48.815Z,74.69
2023-02-01T23:16:51.851Z,74.60
2023-02-01T23:21:54.786Z,74.58
2023-02-01T23:26:57.727Z,74.12
2023-02-01T23:32:00.694Z,74.43
2023-02-01T23:37:03.887Z,74.37
2023-02-01T23:42:06.872Z,74.26
2023-02-01T23:47:11.745Z,74.27
2023-02-01T23:52:14.693Z,74.11
2023-02-01T23:57:17.653Z,74.05
